createdAt,value
2019-05-13T00:01:08.585Z,9.85
2019-05-13T00:03:40.190Z,9.80
2019-05-13T00:06:13.383Z,9.80
2019-05-13T00:08:45.155Z,9.86
2019-05-13T00:11:16.724Z,9.87
2019-05-13T00:13:48.314Z,9.82
2019-05-13T00:16:19.869Z,9.74
2019-05-13T00:18:53.469Z,9.77
2019-05-13T00:21:24.742Z,9.86
2019-05-13T00:23:56.299Z,9.72
2019-05-13T00:26:27.866Z,9.74
2019-05-13T00:28:59.426Z,9.66
2019-05-13T00:31:33.203Z,9.60
2019-05-13T00:34:04.277Z,9.65
2019-05-13T00:36:35.811Z,9.63
2019-05-13T00:39:09.882Z,9.57
2019-05-13T00:41:41.469Z,9.40
2019-05-13T00:44:14.258Z,9.39
2019-05-13T00:46:46.292Z,9.42
2019-05-13T00:49:17.882Z,9.43
2019-05-13T00:51:49.447Z,9.35
2019-05-13T00:54:21.025Z,9.30
2019-05-13T00:56:54.642Z,9.28
2019-05-13T00:59:25.851Z,9.25
2019-05-13T01:01:57.483Z,9.27
2019-05-13T01:04:29.089Z,9.31
2019-05-13T01:07:00.664Z,9.25
2019-05-13T01:09:34.259Z,9.27
2019-05-13T01:12:05.540Z,9.25
2019-05-13T01:14:37.166Z,9.30
2019-05-13T01:17:08.763Z,9.26
2019-05-13T01:19:40.353Z,9.22
2019-05-13T01:22:13.619Z,9.18
2019-05-13T01:24:45.208Z,9.26
2019-05-13T01:27:16.753Z,9.29
2019-05-13T01:29:48.326Z,9.25
2019-05-13T01:32:19.878Z,9.17
2019-05-13T01:34:53.660Z,9.07
2019-05-13T01:37:38.810Z,9.05
2019-05-13T01:39:57.963Z,9.01
2019-05-13T01:42:29.531Z,8.93
2019-05-13T01:45:01.110Z,8.90
2019-05-13T01:47:34.514Z,8.89
2019-05-13T01:50:06.702Z,8.85
2019-05-13T01:52:38.267Z,8.83
2019-05-13T01:55:10.143Z,8.84
2019-05-13T01:57:44.053Z,8.81
2019-05-13T02:00:16.298Z,8.76
2019-05-13T02:02:47.867Z,8.74
2019-05-13T02:05:19.419Z,8.68
2019-05-13T02:07:57.656Z,8.68
2019-05-13T02:10:44.299Z,8.67
2019-05-13T02:13:15.111Z,8.67
2019-05-13T02:15:46.690Z,8.69
2019-05-13T02:18:18.245Z,8.72
2019-05-13T02:20:49.835Z,8.72
2019-05-13T02:23:23.248Z,8.79
2019-05-13T02:25:54.763Z,8.72
2019-05-13T02:28:26.314Z,8.83
2019-05-13T02:30:57.884Z,8.66
2019-05-13T02:33:29.439Z,8.62
2019-05-13T02:36:02.959Z,8.61
2019-05-13T02:38:35.786Z,8.58
2019-05-13T02:41:08.466Z,8.55
2019-05-13T02:43:42.138Z,8.53
2019-05-13T02:46:13.296Z,8.46
2019-05-13T02:48:44.841Z,8.44
2019-05-13T02:51:16.420Z,8.50
2019-05-13T02:53:47.980Z,8.43
2019-05-13T02:56:22.425Z,8.41
2019-05-13T02:58:52.835Z,8.37
2019-05-13T03:01:25.353Z,8.32
2019-05-13T03:03:57.895Z,8.36
2019-05-13T03:06:32.810Z,8.37
2019-05-13T03:09:03.131Z,8.31
2019-05-13T03:11:34.864Z,8.30
2019-05-13T03:14:06.736Z,8.28
2019-05-13T03:17:03.500Z,8.28
2019-05-13T03:19:35.382Z,8.29
2019-05-13T03:22:06.978Z,8.28
2019-05-13T03:24:38.519Z,8.24
2019-05-13T03:27:12.847Z,8.19
2019-05-13T03:29:44.254Z,8.21
2019-05-13T03:32:17.280Z,8.17
2019-05-13T03:34:55.171Z,8.11
2019-05-13T03:37:26.459Z,8.09
2019-05-13T03:39:56.967Z,8.06
2019-05-13T03:42:28.957Z,8.03
2019-05-13T03:45:03.056Z,8.01
2019-05-13T03:47:37.502Z,7.94
2019-05-13T03:50:09.183Z,7.98
2019-05-13T03:52:43.297Z,7.94
2019-05-13T03:55:14.308Z,7.97
2019-05-13T03:57:45.960Z,7.97
2019-05-13T04:00:17.539Z,8.06
2019-05-13T04:02:51.946Z,8.04
2019-05-13T04:05:23.471Z,8.01
2019-05-13T04:07:55.193Z,8.01
2019-05-13T04:10:26.757Z,8.07
2019-05-13T04:12:58.306Z,8.00
2019-05-13T04:15:31.949Z,8.03
2019-05-13T04:18:03.202Z,8.10
2019-05-13T04:20:34.760Z,8.10
2019-05-13T04:23:06.309Z,8.13
2019-05-13T04:25:39.945Z,8.14
2019-05-13T04:28:13.906Z,8.18
2019-05-13T04:30:45.476Z,8.19
2019-05-13T04:33:17.039Z,8.22
2019-05-13T04:35:48.615Z,8.23
2019-05-13T04:38:22.618Z,8.24
2019-05-13T04:40:54.400Z,8.33
2019-05-13T04:43:30.097Z,8.29
2019-05-13T04:46:02.332Z,8.35
2019-05-13T04:48:33.907Z,8.38
2019-05-13T04:51:05.838Z,8.39
2019-05-13T04:53:37.429Z,8.42
2019-05-13T04:56:09.395Z,8.42
2019-05-13T04:58:42.850Z,8.42
2019-05-13T05:01:59.744Z,8.41
2019-05-13T05:04:53.033Z,8.44
2019-05-13T05:07:58.911Z,8.46
2019-05-13T05:11:16.305Z,8.46
2019-05-13T05:14:25.872Z,8.49
2019-05-13T05:17:43.017Z,8.43
2019-05-13T05:20:38.929Z,8.50
2019-05-13T05:23:43.513Z,8.58
2019-05-13T05:27:12.046Z,8.68
2019-05-13T05:30:51.851Z,8.76
2019-05-13T05:34:32.352Z,8.97
2019-05-13T05:37:56.797Z,9.36
2019-05-13T05:40:32.363Z,9.94
2019-05-13T05:43:05.325Z,10.40
2019-05-13T05:45:38.586Z,10.77
2019-05-13T05:48:11.851Z,11.07
2019-05-13T05:50:44.012Z,11.41
2019-05-13T05:53:17.487Z,11.34
2019-05-13T05:55:51.830Z,11.46
2019-05-13T05:58:25.267Z,12.10
2019-05-13T06:00:58.101Z,11.93
2019-05-13T06:03:32.703Z,11.79
2019-05-13T06:06:04.905Z,12.09
2019-05-13T06:08:36.493Z,12.42
2019-05-13T06:11:08.081Z,12.22
2019-05-13T06:13:42.043Z,12.46
2019-05-13T06:16:13.694Z,13.00
2019-05-13T06:18:45.296Z,13.37
2019-05-13T06:21:17.015Z,13.33
2019-05-13T06:23:48.587Z,13.38
2019-05-13T06:26:23.499Z,13.38
2019-05-13T06:28:53.590Z,13.37
2019-05-13T06:31:25.193Z,13.23
2019-05-13T06:33:57.961Z,13.30
2019-05-13T06:36:31.645Z,13.52
2019-05-13T06:39:06.329Z,13.99
2019-05-13T06:41:37.909Z,14.15
2019-05-13T06:44:11.989Z,14.28
2019-05-13T06:46:42.782Z,14.22
2019-05-13T06:49:14.342Z,14.04
2019-05-13T06:51:45.940Z,14.45
2019-05-13T06:54:17.596Z,15.14
2019-05-13T06:56:51.565Z,15.29
2019-05-13T06:59:22.564Z,15.60
2019-05-13T07:01:54.514Z,15.64
2019-05-13T07:04:26.109Z,15.68
2019-05-13T07:07:09.998Z,15.62
2019-05-13T07:09:32.553Z,15.41
2019-05-13T07:12:04.358Z,15.38
2019-05-13T07:14:36.079Z,15.41
2019-05-13T07:17:07.675Z,15.11
2019-05-13T07:19:41.398Z,15.21
2019-05-13T07:22:12.554Z,15.44
2019-05-13T07:24:44.162Z,15.39
2019-05-13T07:27:15.734Z,15.04
2019-05-13T07:29:48.415Z,15.07
2019-05-13T07:32:22.173Z,15.51
2019-05-13T07:34:54.454Z,15.57
2019-05-13T07:37:26.738Z,15.21
2019-05-13T07:39:58.647Z,15.38
2019-05-13T07:42:31.218Z,16.14
2019-05-13T07:45:03.915Z,16.51
2019-05-13T07:47:35.471Z,16.42
2019-05-13T07:50:07.344Z,16.55
2019-05-13T07:52:38.914Z,16.54
2019-05-13T07:55:11.951Z,16.33
2019-05-13T07:57:43.780Z,16.15
2019-05-13T08:00:15.683Z,16.25
2019-05-13T08:02:47.255Z,16.51
2019-05-13T08:05:18.848Z,16.51
2019-05-13T08:07:51.483Z,16.50
2019-05-13T08:10:23.369Z,16.51
2019-05-13T08:12:54.940Z,16.50
2019-05-13T08:15:26.744Z,16.46
2019-05-13T08:17:58.326Z,16.93
2019-05-13T08:20:32.580Z,16.89
2019-05-13T08:23:03.238Z,16.71
2019-05-13T08:25:34.840Z,16.57
2019-05-13T08:28:06.416Z,16.83
2019-05-13T08:30:38.005Z,17.17
2019-05-13T08:33:12.224Z,16.99
2019-05-13T08:35:47.078Z,16.99
2019-05-13T08:38:16.272Z,16.98
2019-05-13T08:40:47.860Z,17.16
2019-05-13T08:43:19.559Z,17.28
2019-05-13T08:45:53.554Z,17.67
2019-05-13T08:48:24.543Z,17.82
2019-05-13T08:50:56.149Z,17.89
2019-05-13T08:53:27.735Z,18.30
2019-05-13T08:56:01.485Z,18.25
2019-05-13T08:58:32.591Z,18.12
2019-05-13T09:01:04.148Z,18.41
2019-05-13T09:03:35.738Z,18.09
2019-05-13T09:06:07.403Z,18.16
2019-05-13T09:08:39.004Z,18.24
2019-05-13T09:11:12.021Z,18.46
2019-05-13T09:13:43.763Z,18.59
2019-05-13T09:16:15.348Z,18.33
2019-05-13T09:18:46.950Z,18.62
2019-05-13T09:21:18.542Z,18.30
2019-05-13T09:23:51.505Z,17.97
2019-05-13T09:26:23.335Z,17.05
2019-05-13T09:28:55.927Z,16.66
2019-05-13T09:31:27.513Z,16.45
2019-05-13T09:34:01.383Z,16.18
2019-05-13T09:36:32.539Z,16.23
2019-05-13T09:39:05.336Z,16.09
2019-05-13T09:41:40.857Z,16.32
2019-05-13T09:44:12.402Z,16.71
2019-05-13T09:46:43.560Z,16.38
2019-05-13T09:49:19.839Z,16.16
2019-05-13T09:51:52.119Z,16.48
2019-05-13T09:54:22.851Z,16.79
2019-05-13T09:56:54.414Z,16.98
2019-05-13T09:59:26.002Z,16.99
2019-05-13T10:01:57.603Z,17.19
2019-05-13T10:04:31.394Z,17.03
2019-05-13T10:07:02.850Z,16.92
2019-05-13T10:09:34.573Z,16.66
2019-05-13T10:12:06.333Z,16.44
2019-05-13T10:14:37.967Z,16.26
2019-05-13T10:17:09.511Z,16.24
2019-05-13T10:19:42.015Z,16.73
2019-05-13T10:22:13.807Z,17.14
2019-05-13T10:24:45.396Z,17.38
2019-05-13T10:27:18.976Z,17.50
2019-05-13T10:29:51.809Z,17.55
2019-05-13T10:32:23.916Z,17.25
2019-05-13T10:34:55.806Z,17.51
2019-05-13T10:37:27.547Z,17.56
2019-05-13T10:39:59.244Z,17.53
2019-05-13T10:42:31.096Z,17.61
2019-05-13T10:45:02.854Z,17.55
2019-05-13T10:47:34.673Z,17.71
2019-05-13T10:50:06.816Z,17.29
2019-05-13T10:52:38.578Z,16.90
2019-05-13T10:55:12.822Z,16.70
2019-05-13T10:57:43.641Z,17.02
2019-05-13T11:00:15.975Z,16.93
2019-05-13T11:02:47.571Z,17.22
2019-05-13T11:05:19.435Z,17.14
2019-05-13T11:07:51.691Z,16.85
2019-05-13T11:10:32.714Z,16.72
2019-05-13T11:13:06.187Z,16.53
2019-05-13T11:18:18.959Z,16.67
2019-05-13T11:20:47.172Z,16.82
2019-05-13T11:23:18.814Z,16.86
2019-05-13T11:25:52.347Z,17.15
2019-05-13T11:28:23.822Z,17.07
2019-05-13T11:30:59.547Z,17.08
2019-05-13T11:33:31.571Z,17.36
2019-05-13T11:36:03.388Z,17.34
2019-05-13T11:38:35.363Z,16.68
2019-05-13T11:41:06.945Z,16.75
2019-05-13T11:43:38.530Z,16.96
2019-05-13T11:46:10.230Z,17.06
2019-05-13T11:48:42.510Z,16.81
2019-05-13T11:51:14.402Z,16.92
2019-05-13T11:53:45.971Z,16.96
2019-05-13T11:56:17.582Z,16.97
2019-05-13T11:58:49.241Z,17.09
2019-05-13T12:01:22.874Z,16.99
2019-05-13T12:03:54.081Z,16.83
2019-05-13T12:06:25.692Z,16.97
2019-05-13T12:08:57.275Z,17.15
2019-05-13T12:11:28.872Z,17.06
2019-05-13T12:14:00.450Z,16.95
2019-05-13T12:16:34.973Z,16.81
2019-05-13T12:19:05.303Z,16.82
2019-05-13T12:21:42.116Z,16.98
2019-05-13T12:24:11.395Z,16.94
2019-05-13T12:26:43.667Z,17.05
2019-05-13T12:29:19.034Z,17.15
2019-05-13T12:31:48.664Z,17.00
2019-05-13T12:34:22.785Z,17.04
2019-05-13T12:36:53.881Z,17.07
2019-05-13T12:39:25.461Z,17.02
2019-05-13T12:41:57.076Z,16.79
2019-05-13T12:44:28.649Z,16.74
2019-05-13T12:47:03.347Z,16.86
2019-05-13T12:49:36.672Z,16.82
2019-05-13T12:52:06.813Z,16.74
2019-05-13T12:54:38.402Z,16.83
2019-05-13T12:57:13.208Z,16.78
2019-05-13T12:59:43.719Z,16.81
2019-05-13T13:02:15.366Z,16.80
2019-05-13T13:05:08.053Z,16.96
2019-05-13T13:07:21.585Z,16.82
2019-05-13T13:09:54.120Z,16.83
2019-05-13T13:12:34.229Z,16.57
2019-05-13T13:14:59.166Z,16.72
2019-05-13T13:17:30.738Z,16.89
2019-05-13T13:20:08.763Z,17.06
2019-05-13T13:22:35.687Z,17.14
2019-05-13T13:25:13.003Z,16.83
2019-05-13T13:28:09.962Z,16.60
2019-05-13T13:30:17.055Z,16.79
2019-05-13T13:32:54.177Z,16.99
2019-05-13T13:35:22.270Z,16.97
2019-05-13T13:37:53.878Z,16.98
2019-05-13T13:40:29.543Z,16.73
2019-05-13T13:42:58.791Z,16.73
2019-05-13T13:45:36.815Z,16.58
2019-05-13T13:48:04.393Z,16.53
2019-05-13T13:50:36.030Z,16.56
2019-05-13T13:53:07.677Z,16.51
2019-05-13T13:55:44.353Z,16.73
2019-05-13T13:58:14.571Z,16.64
2019-05-13T14:01:01.755Z,16.73
2019-05-13T14:03:20.909Z,16.80
2019-05-13T14:05:53.571Z,16.78
2019-05-13T14:06:28.715Z,16.75
2019-05-13T14:08:25.988Z,16.69
2019-05-13T14:10:58.645Z,16.59
2019-05-13T14:13:32.421Z,16.70
2019-05-13T14:16:03.549Z,16.71
2019-05-13T14:18:35.159Z,16.77
2019-05-13T14:21:06.747Z,16.77
2019-05-13T14:23:38.370Z,16.85
2019-05-13T14:26:11.482Z,17.02
2019-05-13T14:28:43.088Z,17.05
2019-05-13T14:31:14.665Z,16.96
2019-05-13T14:33:46.303Z,17.02
2019-05-13T14:36:18.150Z,17.17
2019-05-13T14:38:52.637Z,17.17
2019-05-13T14:41:23.079Z,17.24
2019-05-13T14:43:54.730Z,17.19
2019-05-13T14:46:43.122Z,17.24
2019-05-13T14:49:01.657Z,17.29
2019-05-13T14:51:33.947Z,17.21
2019-05-13T14:54:05.545Z,17.08
2019-05-13T14:56:37.145Z,16.83
2019-05-13T14:59:11.493Z,16.76
2019-05-13T15:01:43.167Z,16.58
2019-05-13T15:04:14.763Z,16.67
2019-05-13T15:06:48.558Z,16.77
2019-05-13T15:09:20.189Z,16.79
2019-05-13T15:11:53.494Z,16.91
2019-05-13T15:14:25.131Z,17.10
2019-05-13T15:17:03.057Z,17.18
2019-05-13T15:19:31.715Z,17.04
2019-05-13T15:22:03.484Z,16.74
2019-05-13T15:24:35.088Z,16.50
2019-05-13T15:27:06.709Z,16.48
2019-05-13T15:29:38.376Z,16.60
2019-05-13T15:32:10.028Z,16.79
2019-05-13T15:34:42.538Z,16.99
2019-05-13T15:37:14.378Z,17.11
2019-05-13T15:39:45.999Z,17.08
2019-05-13T15:42:17.801Z,17.08
2019-05-13T15:44:49.451Z,17.08
2019-05-13T15:47:24.141Z,17.08
2019-05-13T15:49:54.382Z,16.82
2019-05-13T15:52:25.989Z,16.54
2019-05-13T15:54:57.588Z,16.70
2019-05-13T15:57:31.400Z,16.67
2019-05-13T16:00:02.783Z,16.71
2019-05-13T16:02:34.450Z,16.74
2019-05-13T16:05:06.852Z,16.73
2019-05-13T16:07:38.462Z,16.72
2019-05-13T16:10:11.331Z,16.73
2019-05-13T16:12:43.049Z,16.40
2019-05-13T16:15:15.922Z,16.32
2019-05-13T16:17:47.642Z,16.31
2019-05-13T16:20:21.352Z,16.16
2019-05-13T16:22:52.877Z,16.11
2019-05-13T16:25:24.404Z,16.00
2019-05-13T16:27:56.060Z,15.96
2019-05-13T16:30:27.855Z,15.92
2019-05-13T16:32:59.512Z,15.98
2019-05-13T16:35:32.795Z,16.02
2019-05-13T16:38:04.391Z,16.16
2019-05-13T16:40:36.796Z,16.27
2019-05-13T16:43:08.695Z,16.39
2019-05-13T16:45:42.368Z,16.42
2019-05-13T16:48:13.803Z,16.57
2019-05-13T16:50:46.459Z,16.66
2019-05-13T16:53:18.051Z,16.63
2019-05-13T16:55:51.046Z,16.53
2019-05-13T16:58:24.897Z,16.48
2019-05-13T17:00:56.133Z,16.45
2019-05-13T17:03:27.657Z,16.38
2019-05-13T17:05:59.278Z,16.39
2019-05-13T17:08:31.836Z,16.43
2019-05-13T17:11:03.730Z,16.49
2019-05-13T17:13:36.436Z,16.56
2019-05-13T17:16:08.044Z,16.52
2019-05-13T17:18:41.690Z,16.48
2019-05-13T17:21:12.931Z,16.45
2019-05-13T17:23:44.746Z,16.37
2019-05-13T17:26:16.336Z,16.39
2019-05-13T17:28:47.945Z,16.42
2019-05-13T17:31:21.752Z,16.36
2019-05-13T17:33:52.872Z,16.36
2019-05-13T17:36:24.420Z,16.34
2019-05-13T17:38:56.244Z,16.19
2019-05-13T17:41:27.822Z,16.11
2019-05-13T17:43:59.463Z,16.07
2019-05-13T17:46:32.606Z,16.03
2019-05-13T17:49:04.397Z,15.90
2019-05-13T17:51:36.911Z,15.82
2019-05-13T17:54:08.597Z,15.76
2019-05-13T17:56:40.237Z,15.64
2019-05-13T17:59:12.058Z,15.66
2019-05-13T18:01:44.605Z,15.58
2019-05-13T18:04:16.244Z,15.53
2019-05-13T18:06:47.866Z,15.54
2019-05-13T18:09:19.454Z,15.46
2019-05-13T18:11:52.811Z,15.44
2019-05-13T18:14:24.569Z,15.44
2019-05-13T18:16:56.229Z,15.38
2019-05-13T18:19:27.828Z,15.40
2019-05-13T18:21:59.402Z,15.37
2019-05-13T18:24:32.041Z,15.29
2019-05-13T18:27:04.875Z,15.20
2019-05-13T18:29:36.542Z,15.11
2019-05-13T18:32:09.129Z,15.11
2019-05-13T18:34:40.725Z,15.12
2019-05-13T18:37:12.367Z,15.02
2019-05-13T18:39:44.010Z,14.98
2019-05-13T18:42:15.618Z,14.99
2019-05-13T18:44:47.232Z,14.92
2019-05-13T18:47:18.853Z,14.84
2019-05-13T18:49:50.517Z,14.77
2019-05-13T18:52:22.445Z,14.66
2019-05-13T18:54:54.008Z,14.62
2019-05-13T18:57:25.618Z,14.52
2019-05-13T18:59:57.272Z,14.45
2019-05-13T19:02:28.935Z,14.43
2019-05-13T19:05:01.395Z,14.31
2019-05-13T19:07:33.165Z,14.27
2019-05-13T19:10:04.811Z,14.24
2019-05-13T19:12:36.419Z,14.16
2019-05-13T19:15:08.187Z,14.04
2019-05-13T19:17:41.531Z,14.08
2019-05-13T19:20:13.409Z,14.02
2019-05-13T19:22:45.001Z,13.87
2019-05-13T19:25:16.623Z,13.82
2019-05-13T19:27:48.275Z,13.74
2019-05-13T19:30:21.295Z,13.73
2019-05-13T19:32:54.831Z,13.60
2019-05-13T19:35:26.468Z,13.55
2019-05-13T19:37:58.082Z,13.49
2019-05-13T19:40:31.282Z,13.38
2019-05-13T19:43:03.133Z,13.29
2019-05-13T19:45:34.771Z,13.25
2019-05-13T19:48:07.398Z,13.23
2019-05-13T19:50:41.381Z,13.17
2019-05-13T19:53:12.326Z,13.13
2019-05-13T19:55:43.975Z,13.02
2019-05-13T19:58:15.703Z,13.12
2019-05-13T20:00:47.316Z,13.05
2019-05-13T20:03:18.934Z,13.01
2019-05-13T20:05:51.437Z,12.97
2019-05-13T20:08:23.121Z,12.99
2019-05-13T20:10:54.804Z,12.92
2019-05-13T20:13:26.459Z,12.90
2019-05-13T20:15:58.056Z,12.85
2019-05-13T20:18:31.771Z,12.88
2019-05-13T20:21:02.991Z,12.83
2019-05-13T20:23:34.661Z,12.83
2019-05-13T20:26:06.230Z,12.79
2019-05-13T20:28:37.848Z,12.71
2019-05-13T20:31:11.059Z,12.67
2019-05-13T20:33:43.121Z,12.57
2019-05-13T20:36:14.711Z,12.61
2019-05-13T20:38:46.320Z,12.57
2019-05-13T20:41:17.965Z,12.45
2019-05-13T20:43:51.864Z,12.29
2019-05-13T20:46:23.286Z,12.26
2019-05-13T20:48:54.959Z,12.20
2019-05-13T20:51:26.560Z,12.09
2019-05-13T20:53:58.151Z,12.13
2019-05-13T20:56:31.793Z,12.16
2019-05-13T20:59:03.077Z,12.08
2019-05-13T21:01:34.671Z,12.02
2019-05-13T21:04:06.266Z,12.17
2019-05-13T21:06:37.853Z,12.00
2019-05-13T21:09:14.365Z,12.03
2019-05-13T21:11:42.741Z,11.82
2019-05-13T21:14:14.457Z,11.77
2019-05-13T21:16:46.063Z,11.71
2019-05-13T21:19:17.737Z,11.75
2019-05-13T21:21:51.065Z,11.70
2019-05-13T21:24:22.804Z,11.61
2019-05-13T21:26:54.467Z,11.52
2019-05-13T21:29:26.108Z,11.44
2019-05-13T21:31:57.721Z,11.40
2019-05-13T21:34:31.442Z,11.37
2019-05-13T21:37:02.597Z,11.25
2019-05-13T21:39:36.671Z,11.20
2019-05-13T21:42:08.255Z,11.16
2019-05-13T21:44:41.834Z,11.18
2019-05-13T21:47:13.138Z,11.14
2019-05-13T21:49:44.845Z,11.16
2019-05-13T21:52:16.443Z,11.09
2019-05-13T21:54:48.085Z,11.08
2019-05-13T21:57:19.641Z,11.07
2019-05-13T21:59:51.664Z,11.02
2019-05-13T22:02:23.489Z,11.15
2019-05-13T22:04:55.099Z,11.09
2019-05-13T22:07:26.716Z,11.06
2019-05-13T22:09:58.299Z,11.03
2019-05-13T22:12:32.017Z,11.02
2019-05-13T22:15:03.341Z,11.03
2019-05-13T22:17:35.083Z,11.01
2019-05-13T22:20:07.461Z,10.91
2019-05-13T22:22:41.417Z,10.88
2019-05-13T22:25:12.521Z,10.83
2019-05-13T22:27:44.139Z,10.84
2019-05-13T22:30:16.796Z,10.80
2019-05-13T22:32:48.405Z,10.75
2019-05-13T22:35:21.763Z,10.73
2019-05-13T22:37:53.490Z,10.71
2019-05-13T22:40:25.062Z,10.83
2019-05-13T22:42:57.157Z,10.64
2019-05-13T22:45:31.150Z,10.64
2019-05-13T22:48:02.683Z,10.63
2019-05-13T22:50:34.386Z,10.64
2019-05-13T22:53:05.966Z,10.60
2019-05-13T22:55:37.529Z,10.64
2019-05-13T22:58:09.117Z,10.55
2019-05-13T23:00:42.347Z,10.53
2019-05-13T23:03:15.669Z,10.58
2019-05-13T23:05:47.237Z,10.57
2019-05-13T23:08:18.845Z,10.54
2019-05-13T23:10:51.431Z,10.50
2019-05-13T23:13:23.310Z,10.50
2019-05-13T23:15:54.902Z,10.49
2019-05-13T23:18:26.488Z,10.49
2019-05-13T23:20:58.044Z,10.42
2019-05-13T23:23:29.625Z,10.35
2019-05-13T23:26:01.194Z,10.35
2019-05-13T23:28:32.801Z,10.30
2019-05-13T23:31:04.356Z,10.24
2019-05-13T23:33:35.941Z,10.11
2019-05-13T23:36:07.514Z,10.05
2019-05-13T23:38:41.180Z,9.98
2019-05-13T23:41:12.343Z,9.87
2019-05-13T23:43:43.947Z,9.78
2019-05-13T23:46:15.500Z,9.76
2019-05-13T23:48:47.064Z,9.67
2019-05-13T23:51:18.638Z,9.62
2019-05-13T23:53:51.037Z,9.59
2019-05-13T23:56:22.730Z,9.57
2019-05-13T23:58:54.345Z,9.58
